< < Back
Terminal Aerodrome Forecast


Current Version              Previous Versions:   1  2  3  4  5  6  7  8  9  

Terminal Aerodrome Forecast

973
FTUS42 KFFC 220520
TAFCSG
TAF
KCSG 220520Z 2206/2306 35009G18KT P6SM BKN035
     FM220800 36008KT P6SM SCT035
     FM221200 02004KT P6SM SKC
     FM221700 05006KT P6SM FEW040
     FM230200 03004KT P6SM SKC=



Latest METAR

669
SAUS70 KWBC 221900
MTRCSG
METAR KCSG 221851Z VRB03KT 10SM CLR 25/10 A3016 RMK AO2 SLP211
T02500100


USA.gov is the U.S. government's official web portal to all federal, state and local government web resources and services.